Terminal Aerodrome Forecast
Issued by NWS Shreveport, LA

Home | Current Version | Previous Version | Text Only | Print | Product List | Glossary On
Versions: 1 2 3 4 5 6 7 8 9 10 11 12 13 14
000
FTUS44 KSHV 291126
TAFMLU
TAF
KMLU 291126Z 2912/3012 00000KT P6SM SKC
     FM291400 VRB05KT P6SM SCT140
     FM291700 VRB06KT P6SM SCT050 SCT140
     FM300000 VRB03KT P6SM SCT140
     FM300600 00000KT P6SM SKC=

USA.gov is the U.S. government's official web portal to all federal, state and local government web resources and services.